Time;durP1;ratioP1;P1;durP2;ratioP2;P2;SDS_P1;SDS_P2;PMS_P1;PMS_P2;Temp;Humidity;BMP_temperature;BMP_pressure;BME280_temperature;BME280_humidity;BME280_pressure;Samples;Min_cycle;Max_cycle;Signal;HPM_P1;HPM_P2
2023/07/28 00:07:08;;;;;;;6.10;5.00;;;;;;;16.34;63.10;97786.77;434260;1259;113149;-42
2023/07/28 00:17:13;;;;;;;11.00;4.20;;;;;;;16.35;63.09;97774.69;433966;1259;375572;-42
2023/07/28 00:27:21;;;;;;;5.60;4.20;;;;;;;16.35;63.31;97773.73;434419;1253;98867;-42
2023/07/28 00:37:28;;;;;;;9.70;4.40;;;;;;;16.49;63.29;97775.77;434222;1258;109582;-41
2023/07/28 00:47:35;;;;;;;6.10;3.40;;;;;;;16.61;62.96;97772.23;434173;1257;99221;-43
2023/07/28 01:07:46;;;;;;;10.20;3.50;;;;;;;16.65;62.84;97754.84;434144;1257;107151;-43
2023/07/28 01:17:54;;;;;;;5.00;2.80;;;;;;;16.68;62.83;97748.46;434282;1258;99224;-43
2023/07/28 01:38:07;;;;;;;3.00;2.80;;;;;;;16.64;63.02;97740.13;436095;1252;98823;-42
2023/07/28 01:48:14;;;;;;;7.10;3.40;;;;;;;16.53;63.41;97740.48;435387;1254;110182;-42
2023/07/28 01:58:21;;;;;;;5.00;3.20;;;;;;;16.47;63.59;97728.52;435220;1253;108021;-44
2023/07/28 02:08:27;;;;;;;4.40;2.70;;;;;;;16.45;63.88;97718.95;435228;1254;98007;-42
2023/07/28 02:18:34;;;;;;;6.60;2.70;;;;;;;16.50;63.94;97711.70;435002;1254;107878;-42
2023/07/28 02:28:41;;;;;;;3.10;2.60;;;;;;;16.64;64.13;97715.15;435187;1254;99224;-41
2023/07/28 02:38:48;;;;;;;5.90;2.40;;;;;;;16.69;64.48;97704.55;435228;1256;111593;-42
2023/07/28 03:09:08;;;;;;;4.90;2.50;;;;;;;16.64;64.70;97696.73;435095;1254;107925;-42
2023/07/28 03:19:14;;;;;;;4.00;2.80;;;;;;;16.66;64.97;97690.88;435159;1257;99237;-41
2023/07/28 03:39:29;;;;;;;4.30;2.70;;;;;;;16.80;65.35;97667.48;435138;1256;107736;-42
2023/07/28 03:49:36;;;;;;;6.70;2.40;;;;;;;16.86;65.52;97664.34;435265;1254;99353;-43
2023/07/28 03:59:43;;;;;;;2.20;1.90;;;;;;;16.94;65.44;97650.75;435100;1256;108563;-44
2023/07/28 04:09:50;;;;;;;4.30;2.40;;;;;;;16.97;65.73;97646.67;435264;1257;98020;-42
2023/07/28 04:30:05;;;;;;;6.30;3.10;;;;;;;17.25;65.95;97658.30;435073;1254;109268;-42
2023/07/28 05:10:34;;;;;;;10.50;3.40;;;;;;;17.30;66.49;97632.88;435167;1256;111356;-42
2023/07/28 05:30:46;;;;;;;8.40;2.90;;;;;;;17.15;66.95;97629.04;435082;1259;99241;-42
2023/07/28 05:51:00;;;;;;;4.30;3.00;;;;;;;17.24;67.44;97613.85;434873;1253;99251;-43
2023/07/28 06:01:07;;;;;;;13.30;3.60;;;;;;;17.15;67.85;97610.71;435018;1258;111288;-41
2023/07/28 06:11:13;;;;;;;8.60;2.80;;;;;;;17.19;68.14;97621.59;434809;1257;109272;-45
2023/07/28 06:21:20;;;;;;;4.80;2.60;;;;;;;17.44;68.66;97625.27;434940;1257;98811;-41
2023/07/28 06:31:27;;;;;;;4.90;2.60;;;;;;;17.61;68.74;97637.75;435106;1266;107763;-42
2023/07/28 06:41:32;;;;;;;3.60;2.60;;;;;;;17.64;68.95;97646.67;435099;1254;99221;-42
2023/07/28 06:51:40;;;;;;;3.00;2.40;;;;;;;17.64;69.14;97651.37;435122;1256;112184;-43
2023/07/28 07:01:47;;;;;;;5.70;3.20;;;;;;;17.68;69.56;97654.95;435054;1256;107393;-41
2023/07/28 07:11:54;;;;;;;10.20;3.00;;;;;;;17.66;70.18;97661.39;435118;1256;99234;-41
2023/07/28 07:21:59;;;;;;;3.80;3.40;;;;;;;17.63;70.80;97660.61;435062;1254;107329;-42
2023/07/28 07:32:06;;;;;;;4.80;2.70;;;;;;;17.68;71.40;97660.73;435039;1264;98293;-43
2023/07/28 07:42:14;;;;;;;3.90;2.80;;;;;;;17.74;71.97;97668.63;435022;1257;111165;-42
2023/07/28 07:52:22;;;;;;;3.40;2.40;;;;;;;17.97;72.90;97676.08;434949;1256;108372;-41
2023/07/28 08:02:29;;;;;;;4.40;2.80;;;;;;;17.96;73.00;97677.73;434963;1257;97988;-42
2023/07/28 08:12:35;;;;;;;3.30;2.20;;;;;;;17.92;73.56;97681.02;435128;1257;108004;-43
2023/07/28 08:22:43;;;;;;;2.30;1.70;;;;;;;18.21;73.83;97683.30;435072;1267;99246;-42
2023/07/28 08:32:49;;;;;;;4.60;1.50;;;;;;;18.34;74.18;97683.69;435117;1257;111580;-43
2023/07/28 08:42:55;;;;;;;1.80;1.70;;;;;;;18.05;74.80;97694.17;435079;1254;107943;-42
2023/07/28 08:53:02;;;;;;;2.60;1.50;;;;;;;17.99;75.20;97702.40;435124;1257;99230;-42
2023/07/28 09:03:09;;;;;;;2.20;1.10;;;;;;;18.08;75.60;97698.98;435008;1257;108334;-42
2023/07/28 09:13:18;;;;;;;0.90;0.80;;;;;;;18.48;75.93;97694.52;435015;1257;99676;-43
2023/07/28 09:23:28;;;;;;;1.20;1.10;;;;;;;18.98;76.31;97696.01;435207;1254;110315;-42
2023/07/28 09:33:37;;;;;;;1.50;1.40;;;;;;;19.41;76.07;97700.29;434965;1257;109399;-43
2023/07/28 09:43:44;;;;;;;2.70;1.80;;;;;;;19.22;76.01;97698.15;435054;1254;99262;-42
2023/07/28 09:53:54;;;;;;;1.90;1.80;;;;;;;19.21;76.18;97704.45;435053;1256;108595;-42
2023/07/28 10:04:04;;;;;;;2.10;1.90;;;;;;;19.76;76.43;97704.64;435077;1258;99278;-43
2023/07/28 10:24:18;;;;;;;2.20;2.00;;;;;;;21.13;75.70;97701.51;435270;1255;107617;-42
2023/07/28 10:34:25;;;;;;;3.20;2.90;;;;;;;20.70;75.28;97705.63;434874;1254;100647;-43
2023/07/28 10:44:31;;;;;;;3.60;3.00;;;;;;;20.68;75.29;97705.33;435239;1253;108890;-42
2023/07/28 11:04:47;;;;;;;3.70;2.50;;;;;;;22.18;74.29;97697.79;435155;1257;112834;-43
2023/07/28 11:14:54;;;;;;;2.50;2.30;;;;;;;22.24;73.57;97703.75;435164;1255;108011;-42
2023/07/28 11:25:00;;;;;;;3.70;2.10;;;;;;;22.22;73.54;97701.65;435342;1252;99244;-43
2023/07/28 11:45:13;;;;;;;2.80;2.30;;;;;;;22.48;73.11;97696.19;435129;1254;99221;-42
2023/07/28 12:05:28;;;;;;;3.60;2.80;;;;;;;22.44;72.18;97704.04;435456;1254;106717;-41
2023/07/28 12:25:44;;;;;;;2.20;2.10;;;;;;;23.28;71.56;97691.30;435351;1256;107861;-42
2023/07/28 12:35:51;;;;;;;1.70;1.60;;;;;;;23.80;70.50;97697.05;435100;1253;99311;-42
2023/07/28 12:45:59;;;;;;;1.90;1.80;;;;;;;24.23;69.53;97680.38;435336;1253;112152;-42
2023/07/28 12:56:08;;;;;;;2.90;1.90;;;;;;;24.61;68.14;97675.47;435078;1253;108033;-42
2023/07/28 13:06:14;;;;;;;;;;;;;;;24.71;67.45;97670.10;435255;1256;99137;-43
2023/07/28 13:16:21;;;;;;;1.70;1.60;;;;;;;24.56;66.65;97691.15;435261;1256;108670;-42
2023/07/28 13:26:29;;;;;;;2.30;2.10;;;;;;;24.41;66.10;97697.28;435162;1252;99242;-42
2023/07/28 13:36:33;;;;;;;;;;;;;;;24.31;65.80;97692.20;435324;1256;111810;-45
2023/07/28 13:56:46;;;;;;;2.30;2.10;;;;;;;23.80;66.13;97715.98;435132;1253;99170;-43
2023/07/28 14:06:55;;;;;;;3.20;2.40;;;;;;;23.74;66.96;97715.64;435379;1254;108901;-42
2023/07/28 14:27:07;;;;;;;2.10;1.30;;;;;;;23.55;66.62;97684.84;435448;1254;112284;-44
2023/07/28 14:37:16;;;;;;;1.80;1.70;;;;;;;23.66;66.73;97673.41;435152;1257;108353;-42
2023/07/28 14:47:23;;;;;;;3.00;2.20;;;;;;;23.80;66.63;97679.17;435194;1256;99250;-42
2023/07/28 15:07:40;;;;;;;4.20;2.20;;;;;;;23.93;67.06;97692.05;435333;1253;99255;-42
2023/07/28 15:17:47;;;;;;;4.70;1.80;;;;;;;23.97;67.00;97696.37;435306;1254;111772;-42
2023/07/28 15:27:55;;;;;;;1.40;1.30;;;;;;;23.90;66.70;97692.13;435188;1253;107702;-42
2023/07/28 15:48:07;;;;;;;2.20;2.00;;;;;;;23.38;67.11;97717.30;435218;1256;108515;-42
2023/07/28 15:58:14;;;;;;;1.70;1.50;;;;;;;23.09;67.73;97716.84;435259;1256;99224;-42
2023/07/28 16:08:20;;;;;;;2.70;1.00;;;;;;;23.19;68.14;97715.04;435000;1257;113629;-42
2023/07/28 16:28:31;;;;;;;1.70;1.50;;;;;;;22.85;67.82;97720.19;435192;1254;99214;-42
2023/07/28 16:48:44;;;;;;;1.50;1.30;;;;;;;22.51;68.29;97730.19;435105;1252;97964;-42
2023/07/28 17:08:55;;;;;;;5.10;3.60;;;;;;;22.45;68.65;97757.72;435315;1256;108064;-43
2023/07/28 17:19:02;;;;;;;5.90;3.60;;;;;;;22.29;68.93;97759.58;435352;1255;99227;-42
2023/07/28 17:29:07;;;;;;;15.70;3.40;;;;;;;22.11;69.33;97765.04;435068;1256;108776;-43
2023/07/28 17:39:13;;;;;;;3.90;3.50;;;;;;;21.84;69.71;97770.81;435162;1254;98826;-44
2023/07/28 17:49:20;;;;;;;4.90;3.20;;;;;;;21.59;70.28;97772.72;435233;1254;112931;-43
2023/07/28 17:59:26;;;;;;;4.90;3.20;;;;;;;21.48;70.78;97783.63;435049;1258;108530;-43
2023/07/28 18:09:34;;;;;;;3.80;3.40;;;;;;;21.41;71.18;97786.04;435365;1256;97995;-43
2023/07/28 18:19:38;;;;;;;5.30;3.10;;;;;;;21.29;71.54;97791.98;435034;1257;108884;-44
2023/07/28 18:29:44;;;;;;;7.00;3.20;;;;;;;21.11;71.95;97795.05;435160;1256;99196;-44
2023/07/28 18:49:58;;;;;;;5.90;4.00;;;;;;;20.81;72.88;97797.63;435150;1257;108317;-43
2023/07/28 19:00:04;;;;;;;6.20;4.00;;;;;;;20.71;73.55;97806.31;435322;1254;99314;-42
2023/07/28 19:10:12;;;;;;;3.80;2.90;;;;;;;20.54;74.22;97863.99;435053;1256;108530;-42
2023/07/28 19:20:19;;;;;;;3.40;2.80;;;;;;;20.33;74.68;97870.67;435346;1256;99234;-42
2023/07/28 19:30:26;;;;;;;10.20;4.50;;;;;;;20.05;74.56;97874.86;435174;1254;111993;-45
2023/07/28 19:40:32;;;;;;;7.00;2.80;;;;;;;19.86;74.83;97882.98;435140;1256;108081;-43
2023/07/28 19:50:39;;;;;;;5.90;2.70;;;;;;;19.71;74.78;97889.11;435164;1256;99272;-42
2023/07/28 20:00:52;;;;;;;5.50;3.00;;;;;;;19.36;74.88;97908.34;435137;1256;107876;-42
2023/07/28 20:21:06;;;;;;;8.20;3.10;;;;;;;18.62;75.66;97931.20;435069;1256;112060;-41
2023/07/28 20:41:19;;;;;;;4.30;3.70;;;;;;;18.31;77.17;97937.25;435188;1254;97989;-43
2023/07/28 20:51:26;;;;;;;8.10;4.80;;;;;;;18.46;77.93;97935.54;435145;1257;107626;-42
2023/07/28 21:01:32;;;;;;;6.30;4.80;;;;;;;18.66;78.31;97939.30;435256;1256;99238;-43
2023/07/28 21:11:38;;;;;;;8.10;5.40;;;;;;;18.83;78.61;97942.89;435074;1257;112119;-41
2023/07/28 21:41:56;;;;;;;4.90;3.50;;;;;;;19.18;79.08;97958.88;435078;1256;108442;-43
2023/07/28 21:52:02;;;;;;;5.20;3.60;;;;;;;19.18;79.02;97958.80;435307;1254;99285;-41
2023/07/28 22:02:10;;;;;;;7.30;3.90;;;;;;;19.12;78.88;97956.15;435174;1256;111870;-40
2023/07/28 22:12:16;;;;;;;9.40;4.30;;;;;;;18.87;78.61;97963.06;435183;1266;107638;-42
2023/07/28 22:22:22;;;;;;;6.40;5.00;;;;;;;18.56;78.71;97969.48;435200;1252;99171;-42
2023/07/28 22:42:35;;;;;;;6.00;5.20;;;;;;;18.27;79.38;97976.39;435139;1254;99906;-41
2023/07/28 22:52:42;;;;;;;6.30;5.20;;;;;;;18.16;79.53;97975.83;435237;1256;112082;-41
2023/07/28 23:02:49;;;;;;;7.00;5.90;;;;;;;18.12;79.70;97976.34;435061;1256;106649;-42
2023/07/28 23:23:03;;;;;;;8.80;6.80;;;;;;;17.83;80.10;97975.69;435091;1256;109736;-43
2023/07/28 23:33:10;;;;;;;8.30;6.70;;;;;;;17.56;80.14;97971.06;435193;1254;99227;-41
2023/07/28 23:43:17;;;;;;;11.40;7.10;;;;;;;17.33;80.76;97971.36;435083;1256;110699;-42
2023/07/28 23:53:25;;;;;;;11.20;6.60;;;;;;;17.18;80.86;97977.92;435298;1256;107481;-43
